Cut Bank, MT

11:43 AM MST on January 16, 2017 (GMT -0700)
CG Ag Consulting | | Change Station
Active Advisory: High Wind Watch

Elev 3789 ft 48.70 °N, 112.32 °W | Updated 48 seconds ago

Clear
Clear
33.5 °F
Feels Like 27 °F
N
7.9
Wind Variable Wind from WSW
Gusts 10.0 mph

Today
High -- | Low -- °F
--% Chance of Precip.
Yesterday
High -- | Low -- °F
Precip. -- in
Pressure 30.13 in
Visibility 10.0 miles
Clouds Clear
Windchill 27 °F
Dew Point 24 °F
Humidity 64%
Rainfall 0.00 in
Snow Depth Not available.
8:15 AM 5:03 PM
Waning Gibbous, 79% visible
METAR KCTB 161756Z AUTO 23007KT 10SM CLR M02/M08 A3002 RMK AO2 SLP203 T10171083 11017 21067 58001
Pressure 30.13 in
Visibility 10.0 miles
Clouds Clear
Windchill 27 °F
Dew Point 24 °F
Humidity 64%
Rainfall 0.00 in
Snow Depth Not available.
8:15 AM 5:03 PM
Waning Gibbous, 79% visible
METAR KCTB 161756Z AUTO 23007KT 10SM CLR M02/M08 A3002 RMK AO2 SLP203 T10171083 11017 21067 58001

Get Your Daily Forecast Email!

Thanks for signing up!

Be on the lookout for a verification email in your inbox.

You'll start receiving the daily forecast at 8 AM.

×

10-Day Weather Forecast

Almanac

Astronomy

Jan. 16, 2017 Rise Set
Actual Time
Civil Twilight
Nautical Twilight
Astronomical Twilight
Moon
Length of Visible Light
Length of Day
Tomorrow will be .
, % of the Moon is Illuminated

Today's Extremes

State Highs State Lows

Community

WunderPhotos

Upload Photos

1,962,540 photos uploaded!

WunderBlog® & News

Nearby

Air Quality

  Air Quality AQ Index Pollutant
Not available.

Snow Depth

Station Depth Elevation

Earthquake Activity

City Distance Mag. Time & Date
Minimum magnitude displayed is 2.5.

Coastal Water Temperatures

Place Temperature

Stations

Nearby Weather Stations

Station Location Temp. Windchill Dew Point Humidity Wind Precip. Elev Updated Type
                   

Watches & Warnings

High Wind Watch
Issued: 3:10 AM MST Jan. 16, 2017 – National Weather Service

... High wind watch now in effect
from Tuesday morning through Tuesday afternoon...

* winds... southwest 35 to 45 mph... with gusts up to 65 mph.

* Timing... strong west winds are possible Tuesday morning through
Tuesday afternoon.

* Impacts... the strong winds could create difficult driving
conditions for high profile vehicles... and areas of blowing
snow could cause reduced visibility at times.

Precautionary/preparedness actions...

A high wind watch means there is the potential for a hazardous
high wind event. Sustained winds of at least 40 mph... or gusts of
58 mph or stronger may occur. Continue to monitor the latest
forecasts.